Time;durP1;ratioP1;P1;durP2;ratioP2;P2;SDS_P1;SDS_P2;PMS_P1;PMS_P2;Temp;Humidity;BMP_temperature;BMP_pressure;BME280_temperature;BME280_humidity;BME280_pressure;Samples;Min_cycle;Max_cycle;Signal;HPM_P1;HPM_P2
2023/07/19 00:04:26;;;;;;;22.27;7.00;;;32.30;25.70;;;;;;20997217;28;20494;-57
2023/07/19 00:14:27;;;;;;;13.40;5.32;;;32.20;25.70;;;;;;20995860;28;20089;-56
2023/07/19 00:24:28;;;;;;;19.95;7.20;;;32.10;25.70;;;;;;20995767;28;20048;-57
2023/07/19 00:34:28;;;;;;;15.90;6.45;;;32.00;25.60;;;;;;20996451;28;20044;-56
2023/07/19 00:44:30;;;;;;;18.00;5.63;;;32.00;25.80;;;;;;20995842;28;20044;-57
2023/07/19 00:54:31;;;;;;;17.65;6.43;;;32.00;25.70;;;;;;20994088;28;20401;-57
2023/07/19 01:04:32;;;;;;;21.85;6.43;;;31.90;25.70;;;;;;20995010;28;20060;-56
2023/07/19 01:14:34;;;;;;;18.02;5.90;;;31.80;25.80;;;;;;20994648;28;20046;-57
2023/07/19 01:24:35;;;;;;;14.75;5.30;;;31.60;26.10;;;;;;20993652;28;20510;-57
2023/07/19 01:34:35;;;;;;;12.95;5.40;;;31.80;26.10;;;;;;21000799;28;20068;-56
2023/07/19 01:44:36;;;;;;;16.13;6.60;;;31.80;26.10;;;;;;21008393;28;20041;-56
2023/07/19 01:54:37;;;;;;;19.08;5.88;;;31.70;26.10;;;;;;21007752;28;20080;-56
2023/07/19 02:04:37;;;;;;;24.77;7.10;;;31.70;26.00;;;;;;21006221;28;20083;-57
2023/07/19 02:14:39;;;;;;;14.38;6.05;;;31.70;26.30;;;;;;21005115;28;20509;-57
2023/07/19 02:24:39;;;;;;;15.68;5.63;;;31.60;26.60;;;;;;21004931;28;20052;-57
2023/07/19 02:34:41;;;;;;;18.23;5.40;;;31.50;26.80;;;;;;21003106;28;20056;-56
2023/07/19 02:44:42;;;;;;;21.33;6.28;;;31.40;26.90;;;;;;21003549;28;20578;-57
2023/07/19 02:54:43;;;;;;;19.33;5.93;;;31.20;27.10;;;;;;21001743;28;20134;-57
2023/07/19 03:04:43;;;;;;;19.52;5.75;;;31.10;27.20;;;;;;21000533;28;20079;-57
2023/07/19 03:14:44;;;;;;;17.00;5.95;;;31.10;27.10;;;;;;20999682;28;20094;-55
2023/07/19 03:24:45;;;;;;;18.45;6.72;;;31.10;27.60;;;;;;20999851;28;20048;-56
2023/07/19 03:34:45;;;;;;;20.58;6.40;;;30.90;28.20;;;;;;20999499;28;20055;-56
2023/07/19 03:44:46;;;;;;;14.98;5.63;;;30.60;28.70;;;;;;20998459;28;20405;-56
2023/07/19 03:54:50;;;;;;;16.48;6.15;;;30.60;28.60;;;;;;20996534;28;20041;-57
2023/07/19 04:04:51;;;;;;;18.40;5.57;;;30.40;28.50;;;;;;20996281;28;20084;-57
2023/07/19 04:14:51;;;;;;;14.48;5.63;;;30.30;28.60;;;;;;20997067;28;20393;-56
2023/07/19 04:24:54;;;;;;;17.45;6.05;;;30.20;28.70;;;;;;20995756;28;20053;-57
2023/07/19 04:34:55;;;;;;;15.57;5.60;;;30.10;29.10;;;;;;20996328;28;20501;-56
2023/07/19 04:44:55;;;;;;;13.98;5.85;;;29.90;29.30;;;;;;20996095;28;20045;-57
2023/07/19 04:54:56;;;;;;;12.85;4.85;;;29.60;29.50;;;;;;20994231;28;20049;-57
2023/07/19 05:04:57;;;;;;;13.80;5.90;;;29.60;29.90;;;;;;20995215;28;20044;-57
2023/07/19 05:14:58;;;;;;;16.02;5.45;;;29.40;30.20;;;;;;21008914;28;20040;-57
2023/07/19 05:24:59;;;;;;;13.30;5.65;;;29.30;30.50;;;;;;21009572;28;20497;-57
2023/07/19 05:35:00;;;;;;;13.05;5.00;;;29.20;30.60;;;;;;21007567;28;20067;-57
2023/07/19 05:45:00;;;;;;;17.23;5.88;;;29.30;30.80;;;;;;21007760;28;20550;-56
2023/07/19 05:55:01;;;;;;;18.92;5.78;;;29.40;30.50;;;;;;21006847;28;20048;-57
2023/07/19 06:05:02;;;;;;;14.07;5.78;;;29.30;30.80;;;;;;21005173;28;20129;-56
2023/07/19 06:15:03;;;;;;;12.43;4.70;;;29.20;30.90;;;;;;21004016;28;20053;-57
2023/07/19 06:25:05;;;;;;;16.05;5.45;;;29.20;30.60;;;;;;21003655;28;20064;-57
2023/07/19 06:35:08;;;;;;;14.95;5.07;;;29.20;30.40;;;;;;21004205;28;20044;-57
2023/07/19 06:45:09;;;;;;;14.35;4.93;;;29.10;30.20;;;;;;21003407;28;20120;-56
2023/07/19 06:55:10;;;;;;;14.60;6.50;;;29.20;30.00;;;;;;21001211;28;20044;-57
2023/07/19 07:05:11;;;;;;;14.50;5.57;;;29.30;30.00;;;;;;21001369;28;20052;-57
2023/07/19 07:15:12;;;;;;;11.25;4.65;;;29.60;29.70;;;;;;20999278;28;20049;-57
2023/07/19 07:25:12;;;;;;;13.65;5.15;;;30.10;29.20;;;;;;20998431;28;20498;-57
2023/07/19 07:35:13;;;;;;;16.00;5.18;;;30.60;28.00;;;;;;20996553;28;20052;-59
2023/07/19 07:45:14;;;;;;;18.17;5.00;;;31.00;27.60;;;;;;20989784;28;20032;-60
2023/07/19 07:55:15;;;;;;;17.75;5.65;;;31.10;28.60;;;;;;20997080;28;20037;-60
2023/07/19 08:05:16;;;;;;;14.25;6.10;;;31.60;27.40;;;;;;20996438;28;20072;-62
2023/07/19 08:15:17;;;;;;;15.55;5.43;;;31.70;28.60;;;;;;20996060;28;20119;-59
2023/07/19 08:25:21;;;;;;;13.90;5.90;;;32.10;27.10;;;;;;20994253;28;20159;-62
2023/07/19 08:35:22;;;;;;;12.05;5.20;;;32.40;26.60;;;;;;20995150;28;20047;-61
2023/07/19 08:45:25;;;;;;;13.63;5.80;;;32.90;25.20;;;;;;21002223;28;20041;-62
2023/07/19 08:55:26;;;;;;;13.63;6.40;;;33.10;24.20;;;;;;20996146;28;20082;-64
2023/07/19 09:05:30;;;;;;;14.30;5.97;;;33.10;24.20;;;;;;21001625;28;20045;-58
2023/07/19 09:15:36;;;;;;;13.57;6.32;;;33.40;24.00;;;;;;21007553;28;20091;-64
2023/07/19 09:25:57;;;;;;;21.27;5.97;;;33.60;23.70;;;;;;21009499;28;20053;-62
2023/07/19 09:35:58;;;;;;;13.00;5.25;;;34.00;22.80;;;;;;21008547;28;20482;-62
2023/07/19 09:46:00;;;;;;;14.93;5.57;;;34.10;22.50;;;;;;21007745;28;20481;-59
2023/07/19 09:56:02;;;;;;;14.23;5.80;;;34.40;22.10;;;;;;21006163;28;20037;-70
2023/07/19 10:06:03;;;;;;;15.35;5.85;;;34.60;22.10;;;;;;21005509;28;20047;-66
2023/07/19 10:16:05;;;;;;;19.90;6.82;;;34.70;21.80;;;;;;21002506;28;20051;-62
2023/07/19 10:26:09;;;;;;;24.05;6.35;;;35.00;21.60;;;;;;21001622;28;20052;-61
2023/07/19 10:36:12;;;;;;;17.88;6.45;;;35.20;21.10;;;;;;20997933;28;20083;-55
2023/07/19 10:46:13;;;;;;;19.98;5.72;;;35.30;21.10;;;;;;20991198;28;20059;-56
2023/07/19 10:56:16;;;;;;;18.25;6.15;;;35.50;20.90;;;;;;20995941;28;20036;-58
2023/07/19 11:06:16;;;;;;;15.35;5.53;;;35.50;20.60;;;;;;20991774;28;20049;-56
2023/07/19 11:16:17;;;;;;;20.55;6.03;;;35.70;20.70;;;;;;20999275;28;20083;-56
2023/07/19 11:26:18;;;;;;;21.08;6.38;;;35.80;21.00;;;;;;20998455;28;20099;-56
2023/07/19 11:36:19;;;;;;;17.35;5.90;;;35.90;21.10;;;;;;20998335;28;20235;-57
2023/07/19 11:46:20;;;;;;;23.98;5.90;;;36.00;21.60;;;;;;20997926;28;20378;-57
2023/07/19 11:56:21;;;;;;;18.92;5.47;;;36.00;21.30;;;;;;20997636;28;20044;-57
2023/07/19 12:06:22;;;;;;;24.23;8.15;;;36.20;21.50;;;;;;20996371;28;20444;-57
2023/07/19 12:16:22;;;;;;;25.02;6.75;;;36.40;22.20;;;;;;20995934;28;20132;-56
2023/07/19 12:26:23;;;;;;;23.33;6.43;;;36.50;22.10;;;;;;20994573;28;20057;-57
2023/07/19 12:36:24;;;;;;;27.42;7.97;;;36.60;21.60;;;;;;20994198;28;20398;-62
2023/07/19 12:46:25;;;;;;;26.45;7.40;;;36.70;22.70;;;;;;20993837;28;20076;-59
2023/07/19 12:56:26;;;;;;;24.40;7.15;;;36.70;22.20;;;;;;20996113;28;20048;-57
2023/07/19 13:06:27;;;;;;;26.80;7.88;;;36.90;21.70;;;;;;20993992;28;20047;-58
2023/07/19 13:16:28;;;;;;;26.65;7.55;;;36.90;21.70;;;;;;20992552;28;20048;-57
2023/07/19 13:26:28;;;;;;;34.60;9.40;;;37.10;21.60;;;;;;20993732;28;20412;-58
2023/07/19 13:36:31;;;;;;;32.47;7.90;;;37.20;22.00;;;;;;21006603;28;20051;-56
2023/07/19 13:46:32;;;;;;;33.30;9.05;;;37.10;22.20;;;;;;21006536;28;20048;-56
2023/07/19 13:56:32;;;;;;;30.95;9.32;;;37.10;22.60;;;;;;21004906;28;20113;-57
2023/07/19 14:06:33;;;;;;;31.85;8.63;;;37.20;22.20;;;;;;21003800;28;20076;-57
2023/07/19 14:16:34;;;;;;;23.02;7.65;;;37.20;21.60;;;;;;21005526;28;20044;-57
2023/07/19 14:26:35;;;;;;;26.63;9.13;;;37.40;21.20;;;;;;21004660;28;20124;-58
2023/07/19 14:36:36;;;;;;;44.90;10.10;;;37.20;21.30;;;;;;21001431;28;20094;-56
2023/07/19 14:46:37;;;;;;;38.53;10.15;;;37.30;21.40;;;;;;21002294;28;20040;-57
2023/07/19 14:56:38;;;;;;;37.42;9.88;;;37.40;21.10;;;;;;21001268;28;20045;-57
2023/07/19 15:06:38;;;;;;;40.53;10.38;;;37.30;21.40;;;;;;20999128;28;20126;-56
2023/07/19 15:16:39;;;;;;;42.08;12.00;;;37.50;21.60;;;;;;21000429;28;20542;-59
2023/07/19 15:26:40;;;;;;;41.97;11.20;;;37.50;22.20;;;;;;20998582;28;20092;-58
2023/07/19 15:36:40;;;;;;;34.67;9.38;;;37.40;22.30;;;;;;20998878;28;20055;-57
2023/07/19 15:46:41;;;;;;;35.42;9.35;;;37.10;22.00;;;;;;20998020;28;20119;-57
2023/07/19 15:56:42;;;;;;;37.60;10.43;;;37.30;21.80;;;;;;20997282;28;20098;-57
2023/07/19 16:06:43;;;;;;;37.60;9.60;;;37.30;21.70;;;;;;20995805;28;20285;-56
2023/07/19 16:16:43;;;;;;;33.40;8.55;;;37.00;21.30;;;;;;20996540;28;20406;-57
2023/07/19 16:26:44;;;;;;;24.52;8.10;;;37.10;20.90;;;;;;20997171;28;20131;-57
2023/07/19 16:36:46;;;;;;;25.05;7.35;;;37.20;21.00;;;;;;20995981;28;20405;-59
2023/07/19 16:46:46;;;;;;;24.65;7.47;;;37.10;20.80;;;;;;20995698;28;20490;-56
2023/07/19 16:56:47;;;;;;;28.15;7.57;;;37.20;21.00;;;;;;20995313;28;20080;-57
2023/07/19 17:06:48;;;;;;;23.15;7.53;;;37.10;20.70;;;;;;21005504;28;20095;-57
2023/07/19 17:16:49;;;;;;;31.85;7.80;;;37.10;20.60;;;;;;21010136;28;20117;-57
2023/07/19 17:26:49;;;;;;;21.35;7.40;;;37.10;20.60;;;;;;21008101;28;20056;-57
2023/07/19 17:36:50;;;;;;;23.90;7.93;;;37.00;20.70;;;;;;21007342;28;20052;-57
2023/07/19 17:46:52;;;;;;;25.80;7.30;;;36.80;19.90;;;;;;21006825;28;20478;-56
2023/07/19 17:56:53;;;;;;;25.80;7.93;;;36.60;20.80;;;;;;21007545;28;20304;-56
2023/07/19 18:06:54;;;;;;;21.20;7.05;;;36.60;20.40;;;;;;21006578;28;20044;-57
2023/07/19 18:16:55;;;;;;;22.20;7.38;;;36.40;20.60;;;;;;21005222;28;20040;-57
2023/07/19 18:26:55;;;;;;;22.73;8.63;;;36.30;20.10;;;;;;21005255;28;20060;-57
2023/07/19 18:36:56;;;;;;;21.27;6.47;;;36.10;19.60;;;;;;21004330;28;20041;-58
2023/07/19 18:46:59;;;;;;;20.67;6.18;;;35.90;19.50;;;;;;20999979;28;20048;-58
2023/07/19 18:57:00;;;;;;;18.27;6.97;;;35.70;19.00;;;;;;20996652;28;20084;-57
2023/07/19 19:07:00;;;;;;;16.40;5.70;;;35.60;19.20;;;;;;20992351;28;20040;-57
2023/07/19 19:17:01;;;;;;;22.90;6.30;;;35.40;19.40;;;;;;20992270;28;20372;-57
2023/07/19 19:27:02;;;;;;;17.60;6.30;;;35.20;19.10;;;;;;20998681;28;20536;-58
2023/07/19 19:37:03;;;;;;;25.85;7.38;;;35.10;19.40;;;;;;20998557;28;20558;-58
2023/07/19 19:47:04;;;;;;;18.60;6.55;;;34.80;19.20;;;;;;20996020;28;20095;-57
2023/07/19 19:57:05;;;;;;;20.75;6.78;;;34.60;19.40;;;;;;20996833;28;20062;-57
2023/07/19 20:07:06;;;;;;;17.75;6.13;;;34.50;19.70;;;;;;20996767;28;20459;-58
2023/07/19 20:17:07;;;;;;;19.50;5.88;;;34.30;19.60;;;;;;20994976;28;20049;-57
2023/07/19 20:27:08;;;;;;;26.42;8.30;;;34.00;19.80;;;;;;20996683;28;20510;-58
2023/07/19 20:37:09;;;;;;;18.30;7.07;;;33.90;19.80;;;;;;21001286;28;20089;-57
2023/07/19 20:47:10;;;;;;;19.10;7.35;;;33.80;19.80;;;;;;21023061;28;20040;-58
2023/07/19 20:57:10;;;;;;;18.05;7.05;;;33.80;19.80;;;;;;21022544;28;20044;-58
2023/07/19 21:07:12;;;;;;;17.27;6.87;;;33.50;20.00;;;;;;21022092;28;20056;-59
2023/07/19 21:17:13;;;;;;;21.05;7.85;;;33.30;19.90;;;;;;21022158;28;20323;-59
2023/07/19 21:27:13;;;;;;;15.10;6.30;;;33.10;20.50;;;;;;21020598;28;20109;-58
2023/07/19 21:37:14;;;;;;;19.50;6.28;;;33.00;19.80;;;;;;21021270;28;20052;-59
2023/07/19 21:47:15;;;;;;;16.77;6.00;;;33.00;20.10;;;;;;21018855;28;20051;-58
2023/07/19 21:57:16;;;;;;;18.15;6.63;;;33.00;19.80;;;;;;21007254;28;20111;-58
2023/07/19 22:07:16;;;;;;;17.25;6.53;;;32.80;20.10;;;;;;21006274;28;20080;-58
2023/07/19 22:17:17;;;;;;;22.67;7.63;;;32.60;20.50;;;;;;21005748;28;20037;-58
2023/07/19 22:27:18;;;;;;;17.02;7.03;;;32.50;20.30;;;;;;21003529;28;20048;-58
2023/07/19 22:37:18;;;;;;;13.43;5.40;;;32.60;20.30;;;;;;21004567;28;20486;-58
2023/07/19 22:47:19;;;;;;;12.18;5.85;;;32.40;20.40;;;;;;21003738;28;20087;-57
2023/07/19 22:57:20;;;;;;;15.27;6.85;;;32.20;20.40;;;;;;21002791;28;20044;-57
2023/07/19 23:07:21;;;;;;;17.13;6.60;;;32.10;20.90;;;;;;21001475;28;20055;-59
2023/07/19 23:17:21;;;;;;;18.05;7.53;;;32.00;20.80;;;;;;21000937;28;20036;-57
2023/07/19 23:27:22;;;;;;;18.65;9.13;;;31.80;22.40;;;;;;20999029;28;20053;-59
2023/07/19 23:37:23;;;;;;;17.10;6.95;;;31.50;22.60;;;;;;20998205;28;20040;-58
2023/07/19 23:47:24;;;;;;;17.52;7.65;;;31.40;22.80;;;;;;20998788;28;20040;-58
2023/07/19 23:57:25;;;;;;;16.33;7.53;;;31.10;22.90;;;;;;20998017;28;20037;-58
